sensor_id;sensor_type;location;lat;lon;timestamp;temperature;humidity
24338;DHT22;12457;50.832;4.346;2022-08-19T00:01:28;21.00;48.00
24338;DHT22;12457;50.832;4.346;2022-08-19T00:04:01;20.80;50.80
24338;DHT22;12457;50.832;4.346;2022-08-19T00:06:28;20.70;54.50
24338;DHT22;12457;50.832;4.346;2022-08-19T00:08:55;20.70;55.30
24338;DHT22;12457;50.832;4.346;2022-08-19T00:11:21;20.70;57.00
24338;DHT22;12457;50.832;4.346;2022-08-19T00:13:47;20.60;61.70
24338;DHT22;12457;50.832;4.346;2022-08-19T00:16:16;20.60;68.20
24338;DHT22;12457;50.832;4.346;2022-08-19T00:18:44;20.70;66.70
24338;DHT22;12457;50.832;4.346;2022-08-19T00:21:10;20.70;69.00
24338;DHT22;12457;50.832;4.346;2022-08-19T00:23:36;20.70;69.80
24338;DHT22;12457;50.832;4.346;2022-08-19T00:26:06;20.60;72.50
24338;DHT22;12457;50.832;4.346;2022-08-19T00:28:33;20.80;71.00
24338;DHT22;12457;50.832;4.346;2022-08-19T00:31:02;20.90;67.90
24338;DHT22;12457;50.832;4.346;2022-08-19T00:33:29;21.00;64.40
24338;DHT22;12457;50.832;4.346;2022-08-19T00:36:01;21.10;62.00
24338;DHT22;12457;50.832;4.346;2022-08-19T00:38:27;21.00;67.80
24338;DHT22;12457;50.832;4.346;2022-08-19T00:40:54;21.00;69.80
24338;DHT22;12457;50.832;4.346;2022-08-19T00:43:22;20.90;74.00
24338;DHT22;12457;50.832;4.346;2022-08-19T00:45:48;20.90;73.30
24338;DHT22;12457;50.832;4.346;2022-08-19T00:48:16;21.00;73.20
24338;DHT22;12457;50.832;4.346;2022-08-19T00:50:43;20.90;75.70
24338;DHT22;12457;50.832;4.346;2022-08-19T00:53:11;20.90;77.50
24338;DHT22;12457;50.832;4.346;2022-08-19T00:55:39;20.90;78.60
24338;DHT22;12457;50.832;4.346;2022-08-19T00:58:09;20.90;76.60
24338;DHT22;12457;50.832;4.346;2022-08-19T01:00:36;20.90;76.10
24338;DHT22;12457;50.832;4.346;2022-08-19T01:03:08;20.90;78.00
24338;DHT22;12457;50.832;4.346;2022-08-19T01:05:35;20.70;79.20
24338;DHT22;12457;50.832;4.346;2022-08-19T01:08:03;20.70;79.50
24338;DHT22;12457;50.832;4.346;2022-08-19T01:10:33;20.70;79.90
24338;DHT22;12457;50.832;4.346;2022-08-19T01:13:01;20.70;80.60
24338;DHT22;12457;50.832;4.346;2022-08-19T01:15:31;20.60;80.30
24338;DHT22;12457;50.832;4.346;2022-08-19T01:18:07;20.70;76.40
24338;DHT22;12457;50.832;4.346;2022-08-19T01:20:33;20.70;75.40
24338;DHT22;12457;50.832;4.346;2022-08-19T01:23:00;20.60;78.50
24338;DHT22;12457;50.832;4.346;2022-08-19T01:25:41;20.40;80.60
24338;DHT22;12457;50.832;4.346;2022-08-19T01:30:43;20.20;85.20
24338;DHT22;12457;50.832;4.346;2022-08-19T01:33:09;20.20;84.50
24338;DHT22;12457;50.832;4.346;2022-08-19T01:35:35;20.20;84.90
24338;DHT22;12457;50.832;4.346;2022-08-19T01:38:05;20.20;83.80
24338;DHT22;12457;50.832;4.346;2022-08-19T01:40:34;20.20;81.50
24338;DHT22;12457;50.832;4.346;2022-08-19T01:43:00;20.10;80.50
24338;DHT22;12457;50.832;4.346;2022-08-19T01:45:27;20.10;78.10
24338;DHT22;12457;50.832;4.346;2022-08-19T01:47:53;20.10;78.80
24338;DHT22;12457;50.832;4.346;2022-08-19T01:50:19;20.00;79.20
24338;DHT22;12457;50.832;4.346;2022-08-19T01:52:45;19.90;78.10
24338;DHT22;12457;50.832;4.346;2022-08-19T01:55:14;19.90;77.30
24338;DHT22;12457;50.832;4.346;2022-08-19T01:57:43;20.00;78.50
24338;DHT22;12457;50.832;4.346;2022-08-19T02:00:12;20.00;75.40
24338;DHT22;12457;50.832;4.346;2022-08-19T02:02:39;20.00;76.30
24338;DHT22;12457;50.832;4.346;2022-08-19T02:05:05;19.90;73.80
24338;DHT22;12457;50.832;4.346;2022-08-19T02:07:32;19.90;69.90
24338;DHT22;12457;50.832;4.346;2022-08-19T02:09:58;19.80;71.80
24338;DHT22;12457;50.832;4.346;2022-08-19T02:12:23;19.70;72.50
24338;DHT22;12457;50.832;4.346;2022-08-19T02:14:49;19.60;73.00
24338;DHT22;12457;50.832;4.346;2022-08-19T02:17:14;19.50;75.00
24338;DHT22;12457;50.832;4.346;2022-08-19T02:19:40;19.50;76.70
24338;DHT22;12457;50.832;4.346;2022-08-19T02:22:06;19.50;80.40
24338;DHT22;12457;50.832;4.346;2022-08-19T02:24:31;19.50;85.10
24338;DHT22;12457;50.832;4.346;2022-08-19T02:26:57;19.40;88.90
24338;DHT22;12457;50.832;4.346;2022-08-19T02:29:24;19.40;87.00
24338;DHT22;12457;50.832;4.346;2022-08-19T02:31:49;19.40;83.70
24338;DHT22;12457;50.832;4.346;2022-08-19T02:34:16;19.40;83.70
24338;DHT22;12457;50.832;4.346;2022-08-19T02:36:42;19.30;83.90
24338;DHT22;12457;50.832;4.346;2022-08-19T02:39:08;19.30;85.00
24338;DHT22;12457;50.832;4.346;2022-08-19T02:41:34;19.10;86.70
24338;DHT22;12457;50.832;4.346;2022-08-19T02:44:01;19.00;89.80
24338;DHT22;12457;50.832;4.346;2022-08-19T02:46:30;18.90;90.80
24338;DHT22;12457;50.832;4.346;2022-08-19T02:48:59;18.90;91.70
24338;DHT22;12457;50.832;4.346;2022-08-19T02:51:29;18.80;91.80
24338;DHT22;12457;50.832;4.346;2022-08-19T02:53:55;18.80;91.50
24338;DHT22;12457;50.832;4.346;2022-08-19T02:56:22;18.90;90.10
24338;DHT22;12457;50.832;4.346;2022-08-19T02:58:50;18.90;88.10
24338;DHT22;12457;50.832;4.346;2022-08-19T03:01:25;18.90;87.90
24338;DHT22;12457;50.832;4.346;2022-08-19T03:03:51;18.80;90.10
24338;DHT22;12457;50.832;4.346;2022-08-19T03:06:17;18.80;91.00
24338;DHT22;12457;50.832;4.346;2022-08-19T03:08:45;18.70;91.60
24338;DHT22;12457;50.832;4.346;2022-08-19T03:11:19;18.60;92.40
24338;DHT22;12457;50.832;4.346;2022-08-19T03:13:45;18.60;92.50
24338;DHT22;12457;50.832;4.346;2022-08-19T03:16:12;18.60;92.40
24338;DHT22;12457;50.832;4.346;2022-08-19T03:18:38;18.60;92.30
24338;DHT22;12457;50.832;4.346;2022-08-19T03:21:04;18.50;93.20
24338;DHT22;12457;50.832;4.346;2022-08-19T03:23:30;18.50;93.30
24338;DHT22;12457;50.832;4.346;2022-08-19T03:25:57;18.50;93.30
24338;DHT22;12457;50.832;4.346;2022-08-19T03:28:23;18.50;93.30
24338;DHT22;12457;50.832;4.346;2022-08-19T03:31:00;18.40;93.60
24338;DHT22;12457;50.832;4.346;2022-08-19T03:33:27;18.40;94.40
24338;DHT22;12457;50.832;4.346;2022-08-19T03:36:21;18.40;94.70
24338;DHT22;12457;50.832;4.346;2022-08-19T03:38:55;18.30;94.80
24338;DHT22;12457;50.832;4.346;2022-08-19T03:41:24;18.30;95.10
24338;DHT22;12457;50.832;4.346;2022-08-19T03:43:50;18.40;94.30
24338;DHT22;12457;50.832;4.346;2022-08-19T03:46:21;18.40;93.60
24338;DHT22;12457;50.832;4.346;2022-08-19T03:48:49;18.40;93.70
24338;DHT22;12457;50.832;4.346;2022-08-19T03:51:21;18.40;93.80
24338;DHT22;12457;50.832;4.346;2022-08-19T03:53:48;18.30;94.00
24338;DHT22;12457;50.832;4.346;2022-08-19T03:56:14;18.20;94.80
24338;DHT22;12457;50.832;4.346;2022-08-19T03:58:40;18.20;96.30
24338;DHT22;12457;50.832;4.346;2022-08-19T04:01:12;18.20;96.60
24338;DHT22;12457;50.832;4.346;2022-08-19T04:03:39;18.20;96.40
24338;DHT22;12457;50.832;4.346;2022-08-19T04:06:16;18.20;96.60
24338;DHT22;12457;50.832;4.346;2022-08-19T04:08:44;18.10;97.30
24338;DHT22;12457;50.832;4.346;2022-08-19T04:11:13;18.10;97.10
24338;DHT22;12457;50.832;4.346;2022-08-19T04:13:39;18.10;98.00
24338;DHT22;12457;50.832;4.346;2022-08-19T04:16:06;18.00;98.40
24338;DHT22;12457;50.832;4.346;2022-08-19T04:18:33;18.00;98.80
24338;DHT22;12457;50.832;4.346;2022-08-19T04:20:59;17.90;99.00
24338;DHT22;12457;50.832;4.346;2022-08-19T04:23:26;17.90;99.20
24338;DHT22;12457;50.832;4.346;2022-08-19T04:25:53;17.90;99.30
24338;DHT22;12457;50.832;4.346;2022-08-19T04:28:19;17.80;99.80
24338;DHT22;12457;50.832;4.346;2022-08-19T04:30:48;17.80;99.90
24338;DHT22;12457;50.832;4.346;2022-08-19T04:33:17;17.70;99.90
24338;DHT22;12457;50.832;4.346;2022-08-19T04:35:46;17.70;99.90
24338;DHT22;12457;50.832;4.346;2022-08-19T04:38:14;17.70;99.90
24338;DHT22;12457;50.832;4.346;2022-08-19T04:40:47;17.70;99.90
24338;DHT22;12457;50.832;4.346;2022-08-19T04:43:32;17.70;99.90
24338;DHT22;12457;50.832;4.346;2022-08-19T04:45:58;17.70;99.90
24338;DHT22;12457;50.832;4.346;2022-08-19T04:48:25;17.70;99.90
24338;DHT22;12457;50.832;4.346;2022-08-19T04:50:58;17.70;99.90
24338;DHT22;12457;50.832;4.346;2022-08-19T04:53:29;17.70;99.90
24338;DHT22;12457;50.832;4.346;2022-08-19T04:55:59;17.70;99.90
24338;DHT22;12457;50.832;4.346;2022-08-19T04:58:29;17.70;99.90
24338;DHT22;12457;50.832;4.346;2022-08-19T05:00:55;17.80;99.90
24338;DHT22;12457;50.832;4.346;2022-08-19T05:03:21;17.80;99.90
24338;DHT22;12457;50.832;4.346;2022-08-19T05:05:48;17.70;99.90
24338;DHT22;12457;50.832;4.346;2022-08-19T05:08:16;17.80;99.90
24338;DHT22;12457;50.832;4.346;2022-08-19T05:10:46;17.80;99.90
24338;DHT22;12457;50.832;4.346;2022-08-19T05:13:14;17.90;99.90
24338;DHT22;12457;50.832;4.346;2022-08-19T05:15:40;17.90;99.90
24338;DHT22;12457;50.832;4.346;2022-08-19T05:18:06;17.80;99.90
24338;DHT22;12457;50.832;4.346;2022-08-19T05:20:50;17.90;99.90
24338;DHT22;12457;50.832;4.346;2022-08-19T05:23:34;18.00;99.90
24338;DHT22;12457;50.832;4.346;2022-08-19T05:26:00;18.20;99.40
24338;DHT22;12457;50.832;4.346;2022-08-19T05:28:26;18.30;98.40
24338;DHT22;12457;50.832;4.346;2022-08-19T05:30:53;18.50;96.90
24338;DHT22;12457;50.832;4.346;2022-08-19T05:33:21;18.60;95.00
24338;DHT22;12457;50.832;4.346;2022-08-19T05:35:48;18.80;94.00
24338;DHT22;12457;50.832;4.346;2022-08-19T05:38:15;18.80;92.10
24338;DHT22;12457;50.832;4.346;2022-08-19T05:40:41;18.90;92.10
24338;DHT22;12457;50.832;4.346;2022-08-19T05:43:07;19.00;91.80
24338;DHT22;12457;50.832;4.346;2022-08-19T05:45:39;19.40;91.30
24338;DHT22;12457;50.832;4.346;2022-08-19T05:48:05;19.70;81.80
24338;DHT22;12457;50.832;4.346;2022-08-19T05:50:30;19.80;74.60
24338;DHT22;12457;50.832;4.346;2022-08-19T05:52:56;19.90;70.80
24338;DHT22;12457;50.832;4.346;2022-08-19T05:55:22;19.90;68.10
24338;DHT22;12457;50.832;4.346;2022-08-19T05:57:47;19.90;66.20
24338;DHT22;12457;50.832;4.346;2022-08-19T06:00:13;19.90;67.00
24338;DHT22;12457;50.832;4.346;2022-08-19T06:02:40;19.80;65.70
24338;DHT22;12457;50.832;4.346;2022-08-19T06:05:06;19.80;65.50
24338;DHT22;12457;50.832;4.346;2022-08-19T06:07:39;19.80;67.40
24338;DHT22;12457;50.832;4.346;2022-08-19T06:10:06;19.70;68.60
24338;DHT22;12457;50.832;4.346;2022-08-19T06:12:34;19.80;70.50
24338;DHT22;12457;50.832;4.346;2022-08-19T06:15:05;20.10;68.10
24338;DHT22;12457;50.832;4.346;2022-08-19T06:17:32;20.40;59.80
24338;DHT22;12457;50.832;4.346;2022-08-19T06:20:00;20.50;54.60
24338;DHT22;12457;50.832;4.346;2022-08-19T06:22:27;20.50;52.90
24338;DHT22;12457;50.832;4.346;2022-08-19T06:24:53;20.70;51.40
24338;DHT22;12457;50.832;4.346;2022-08-19T06:27:20;20.70;50.00
24338;DHT22;12457;50.832;4.346;2022-08-19T06:29:49;20.70;49.90
24338;DHT22;12457;50.832;4.346;2022-08-19T06:32:16;20.90;48.40
24338;DHT22;12457;50.832;4.346;2022-08-19T06:34:42;21.10;43.60
24338;DHT22;12457;50.832;4.346;2022-08-19T06:37:08;21.20;41.00
24338;DHT22;12457;50.832;4.346;2022-08-19T06:39:38;21.20;37.90
24338;DHT22;12457;50.832;4.346;2022-08-19T06:42:10;21.30;37.80
24338;DHT22;12457;50.832;4.346;2022-08-19T06:44:43;21.50;34.00
24338;DHT22;12457;50.832;4.346;2022-08-19T06:47:12;21.60;32.50
24338;DHT22;12457;50.832;4.346;2022-08-19T06:49:59;21.80;27.30
24338;DHT22;12457;50.832;4.346;2022-08-19T06:52:40;21.90;25.00
24338;DHT22;12457;50.832;4.346;2022-08-19T06:55:06;21.80;24.20
24338;DHT22;12457;50.832;4.346;2022-08-19T06:57:35;21.70;27.10
24338;DHT22;12457;50.832;4.346;2022-08-19T07:00:05;21.70;30.10
24338;DHT22;12457;50.832;4.346;2022-08-19T07:02:40;21.60;31.10
24338;DHT22;12457;50.832;4.346;2022-08-19T07:05:06;21.60;34.00
24338;DHT22;12457;50.832;4.346;2022-08-19T07:07:32;21.50;35.80
24338;DHT22;12457;50.832;4.346;2022-08-19T07:09:58;21.50;36.70
24338;DHT22;12457;50.832;4.346;2022-08-19T07:12:24;21.50;41.40
24338;DHT22;12457;50.832;4.346;2022-08-19T07:14:50;21.60;41.50
24338;DHT22;12457;50.832;4.346;2022-08-19T07:17:15;21.50;45.90
24338;DHT22;12457;50.832;4.346;2022-08-19T07:19:41;21.50;44.40
24338;DHT22;12457;50.832;4.346;2022-08-19T07:22:09;21.60;45.00
24338;DHT22;12457;50.832;4.346;2022-08-19T07:24:36;21.80;41.20
24338;DHT22;12457;50.832;4.346;2022-08-19T07:27:06;21.90;37.20
24338;DHT22;12457;50.832;4.346;2022-08-19T07:29:47;22.10;36.10
24338;DHT22;12457;50.832;4.346;2022-08-19T07:32:15;22.20;30.40
24338;DHT22;12457;50.832;4.346;2022-08-19T07:34:47;22.20;32.90
24338;DHT22;12457;50.832;4.346;2022-08-19T07:37:18;22.40;28.40
24338;DHT22;12457;50.832;4.346;2022-08-19T07:39:49;22.70;25.30
24338;DHT22;12457;50.832;4.346;2022-08-19T07:42:17;23.10;14.10
24338;DHT22;12457;50.832;4.346;2022-08-19T07:44:52;23.30;10.50
24338;DHT22;12457;50.832;4.346;2022-08-19T07:47:20;23.60;1.00
24338;DHT22;12457;50.832;4.346;2022-08-19T07:49:46;23.70;1.00
24338;DHT22;12457;50.832;4.346;2022-08-19T07:52:12;23.50;1.00
24338;DHT22;12457;50.832;4.346;2022-08-19T07:54:40;23.50;1.00
24338;DHT22;12457;50.832;4.346;2022-08-19T07:57:07;23.20;7.80
24338;DHT22;12457;50.832;4.346;2022-08-19T07:59:33;23.30;10.40
24338;DHT22;12457;50.832;4.346;2022-08-19T08:02:04;23.50;7.10
24338;DHT22;12457;50.832;4.346;2022-08-19T08:04:31;23.90;1.00
24338;DHT22;12457;50.832;4.346;2022-08-19T08:07:15;24.00;1.00
24338;DHT22;12457;50.832;4.346;2022-08-19T08:10:11;24.10;1.00
24338;DHT22;12457;50.832;4.346;2022-08-19T08:12:42;24.00;1.00
24338;DHT22;12457;50.832;4.346;2022-08-19T08:15:21;23.90;1.00
24338;DHT22;12457;50.832;4.346;2022-08-19T08:17:57;24.00;1.00
24338;DHT22;12457;50.832;4.346;2022-08-19T08:20:23;24.20;1.00
24338;DHT22;12457;50.832;4.346;2022-08-19T08:22:49;24.30;1.00
24338;DHT22;12457;50.832;4.346;2022-08-19T08:25:37;24.40;1.00
24338;DHT22;12457;50.832;4.346;2022-08-19T08:28:06;24.40;1.00
24338;DHT22;12457;50.832;4.346;2022-08-19T08:30:34;24.20;1.00
24338;DHT22;12457;50.832;4.346;2022-08-19T08:33:01;24.30;1.00
24338;DHT22;12457;50.832;4.346;2022-08-19T08:35:27;24.50;1.00
24338;DHT22;12457;50.832;4.346;2022-08-19T08:37:54;24.50;1.00
24338;DHT22;12457;50.832;4.346;2022-08-19T08:43:30;24.20;1.00
24338;DHT22;12457;50.832;4.346;2022-08-19T08:46:11;24.20;1.00
24338;DHT22;12457;50.832;4.346;2022-08-19T08:48:51;24.00;1.00
24338;DHT22;12457;50.832;4.346;2022-08-19T08:51:23;24.10;1.00
24338;DHT22;12457;50.832;4.346;2022-08-19T08:53:52;24.10;1.00
24338;DHT22;12457;50.832;4.346;2022-08-19T08:56:19;24.00;1.00
24338;DHT22;12457;50.832;4.346;2022-08-19T08:59:00;24.00;1.00
24338;DHT22;12457;50.832;4.346;2022-08-19T09:01:27;24.00;1.00
24338;DHT22;12457;50.832;4.346;2022-08-19T09:03:53;24.00;1.00
24338;DHT22;12457;50.832;4.346;2022-08-19T09:06:40;23.80;9.30
24338;DHT22;12457;50.832;4.346;2022-08-19T09:14:58;24.20;1.00
24338;DHT22;12457;50.832;4.346;2022-08-19T09:17:45;24.10;1.00
24338;DHT22;12457;50.832;4.346;2022-08-19T09:20:29;24.40;1.50
24338;DHT22;12457;50.832;4.346;2022-08-19T09:26:21;24.60;1.00
24338;DHT22;12457;50.832;4.346;2022-08-19T09:28:51;24.60;1.00
24338;DHT22;12457;50.832;4.346;2022-08-19T09:31:21;24.70;1.00
24338;DHT22;12457;50.832;4.346;2022-08-19T09:33:53;24.50;1.00
24338;DHT22;12457;50.832;4.346;2022-08-19T09:36:23;24.40;1.00
24338;DHT22;12457;50.832;4.346;2022-08-19T09:38:51;24.40;1.00
24338;DHT22;12457;50.832;4.346;2022-08-19T09:41:20;24.40;1.00
24338;DHT22;12457;50.832;4.346;2022-08-19T09:43:48;24.70;1.00
24338;DHT22;12457;50.832;4.346;2022-08-19T09:46:14;24.80;1.00
24338;DHT22;12457;50.832;4.346;2022-08-19T09:48:42;24.80;1.00
24338;DHT22;12457;50.832;4.346;2022-08-19T09:51:10;24.60;1.00
24338;DHT22;12457;50.832;4.346;2022-08-19T09:53:37;24.70;1.00
24338;DHT22;12457;50.832;4.346;2022-08-19T09:56:04;24.60;1.00
24338;DHT22;12457;50.832;4.346;2022-08-19T09:58:31;24.60;1.00
24338;DHT22;12457;50.832;4.346;2022-08-19T10:00:58;24.60;1.00
24338;DHT22;12457;50.832;4.346;2022-08-19T10:03:26;24.50;1.00
24338;DHT22;12457;50.832;4.346;2022-08-19T10:06:08;24.70;1.00
24338;DHT22;12457;50.832;4.346;2022-08-19T10:08:42;24.80;1.00
24338;DHT22;12457;50.832;4.346;2022-08-19T10:11:11;24.80;1.00
24338;DHT22;12457;50.832;4.346;2022-08-19T10:13:43;25.10;1.00
24338;DHT22;12457;50.832;4.346;2022-08-19T10:16:15;25.20;1.00
24338;DHT22;12457;50.832;4.346;2022-08-19T10:18:45;24.90;1.00
24338;DHT22;12457;50.832;4.346;2022-08-19T10:21:35;24.90;1.00
24338;DHT22;12457;50.832;4.346;2022-08-19T10:24:03;25.00;1.00
24338;DHT22;12457;50.832;4.346;2022-08-19T10:26:33;24.80;1.00
24338;DHT22;12457;50.832;4.346;2022-08-19T10:29:16;25.00;1.00
24338;DHT22;12457;50.832;4.346;2022-08-19T10:31:45;25.20;1.00
24338;DHT22;12457;50.832;4.346;2022-08-19T10:34:15;24.90;1.00
24338;DHT22;12457;50.832;4.346;2022-08-19T10:36:43;25.10;1.00
24338;DHT22;12457;50.832;4.346;2022-08-19T10:39:09;25.20;1.00
24338;DHT22;12457;50.832;4.346;2022-08-19T10:41:38;25.10;1.00
24338;DHT22;12457;50.832;4.346;2022-08-19T10:44:22;25.10;1.00
24338;DHT22;12457;50.832;4.346;2022-08-19T10:46:51;25.10;1.00
24338;DHT22;12457;50.832;4.346;2022-08-19T10:49:20;25.30;1.00
24338;DHT22;12457;50.832;4.346;2022-08-19T10:51:49;25.50;1.00
24338;DHT22;12457;50.832;4.346;2022-08-19T10:54:39;25.60;1.00
24338;DHT22;12457;50.832;4.346;2022-08-19T10:57:33;25.70;1.00
24338;DHT22;12457;50.832;4.346;2022-08-19T10:59:59;25.70;1.00
24338;DHT22;12457;50.832;4.346;2022-08-19T11:02:27;25.60;1.00
24338;DHT22;12457;50.832;4.346;2022-08-19T11:04:53;25.20;1.00
24338;DHT22;12457;50.832;4.346;2022-08-19T11:07:25;25.00;1.00
24338;DHT22;12457;50.832;4.346;2022-08-19T11:09:57;24.90;1.00
24338;DHT22;12457;50.832;4.346;2022-08-19T11:12:27;24.70;1.00
24338;DHT22;12457;50.832;4.346;2022-08-19T11:14:56;24.70;1.00
24338;DHT22;12457;50.832;4.346;2022-08-19T11:17:21;25.10;1.00
24338;DHT22;12457;50.832;4.346;2022-08-19T11:19:54;25.50;1.00
24338;DHT22;12457;50.832;4.346;2022-08-19T11:22:22;25.70;1.00
24338;DHT22;12457;50.832;4.346;2022-08-19T11:24:51;25.60;1.00
24338;DHT22;12457;50.832;4.346;2022-08-19T11:27:17;25.50;1.00
24338;DHT22;12457;50.832;4.346;2022-08-19T11:29:46;25.70;1.00
24338;DHT22;12457;50.832;4.346;2022-08-19T11:32:21;25.70;1.00
24338;DHT22;12457;50.832;4.346;2022-08-19T11:34:47;25.50;1.00
24338;DHT22;12457;50.832;4.346;2022-08-19T11:37:13;25.40;1.00
24338;DHT22;12457;50.832;4.346;2022-08-19T11:39:39;25.40;1.00
24338;DHT22;12457;50.832;4.346;2022-08-19T11:42:07;25.30;1.00
24338;DHT22;12457;50.832;4.346;2022-08-19T11:44:52;25.40;1.00
24338;DHT22;12457;50.832;4.346;2022-08-19T11:47:19;25.70;1.00
24338;DHT22;12457;50.832;4.346;2022-08-19T11:49:50;25.80;1.00
24338;DHT22;12457;50.832;4.346;2022-08-19T11:52:19;26.00;1.00
24338;DHT22;12457;50.832;4.346;2022-08-19T11:54:45;26.20;1.00
24338;DHT22;12457;50.832;4.346;2022-08-19T11:57:10;26.40;1.00
24338;DHT22;12457;50.832;4.346;2022-08-19T11:59:36;26.70;1.00
24338;DHT22;12457;50.832;4.346;2022-08-19T12:02:02;27.20;1.00
24338;DHT22;12457;50.832;4.346;2022-08-19T12:04:27;27.60;1.00
24338;DHT22;12457;50.832;4.346;2022-08-19T12:06:53;27.80;1.00
24338;DHT22;12457;50.832;4.346;2022-08-19T12:09:19;28.00;1.00
24338;DHT22;12457;50.832;4.346;2022-08-19T12:11:45;28.10;1.00
24338;DHT22;12457;50.832;4.346;2022-08-19T12:14:12;28.00;1.00
24338;DHT22;12457;50.832;4.346;2022-08-19T12:16:40;28.00;1.00
24338;DHT22;12457;50.832;4.346;2022-08-19T12:19:06;28.10;1.00
24338;DHT22;12457;50.832;4.346;2022-08-19T12:21:34;28.00;99.90
24338;DHT22;12457;50.832;4.346;2022-08-19T12:24:02;27.80;1.00
24338;DHT22;12457;50.832;4.346;2022-08-19T12:26:29;27.60;1.00
24338;DHT22;12457;50.832;4.346;2022-08-19T12:29:13;27.60;1.00
24338;DHT22;12457;50.832;4.346;2022-08-19T12:31:39;27.60;1.00
24338;DHT22;12457;50.832;4.346;2022-08-19T12:34:05;27.50;1.00
24338;DHT22;12457;50.832;4.346;2022-08-19T12:36:31;27.70;1.00
24338;DHT22;12457;50.832;4.346;2022-08-19T12:38:58;27.90;1.00
24338;DHT22;12457;50.832;4.346;2022-08-19T12:41:25;27.70;1.00
24338;DHT22;12457;50.832;4.346;2022-08-19T12:43:54;27.80;1.00
24338;DHT22;12457;50.832;4.346;2022-08-19T12:46:20;27.90;99.90
24338;DHT22;12457;50.832;4.346;2022-08-19T12:48:48;28.10;99.90
24338;DHT22;12457;50.832;4.346;2022-08-19T12:51:18;28.20;99.90
24338;DHT22;12457;50.832;4.346;2022-08-19T12:53:47;28.10;99.90
24338;DHT22;12457;50.832;4.346;2022-08-19T12:56:13;28.40;99.90
24338;DHT22;12457;50.832;4.346;2022-08-19T12:58:40;28.50;99.90
24338;DHT22;12457;50.832;4.346;2022-08-19T13:01:14;28.50;99.90
24338;DHT22;12457;50.832;4.346;2022-08-19T13:03:49;28.20;99.90
24338;DHT22;12457;50.832;4.346;2022-08-19T13:06:17;28.00;99.90
24338;DHT22;12457;50.832;4.346;2022-08-19T13:08:43;28.20;99.90
24338;DHT22;12457;50.832;4.346;2022-08-19T13:11:11;28.20;99.90
24338;DHT22;12457;50.832;4.346;2022-08-19T13:13:43;28.10;99.90
24338;DHT22;12457;50.832;4.346;2022-08-19T13:16:11;28.00;99.90
24338;DHT22;12457;50.832;4.346;2022-08-19T13:18:41;27.70;99.90
24338;DHT22;12457;50.832;4.346;2022-08-19T13:21:10;27.50;99.90
24338;DHT22;12457;50.832;4.346;2022-08-19T13:23:39;27.30;99.90
24338;DHT22;12457;50.832;4.346;2022-08-19T13:26:07;27.40;99.90
24338;DHT22;12457;50.832;4.346;2022-08-19T13:28:34;27.40;99.90
24338;DHT22;12457;50.832;4.346;2022-08-19T13:31:22;27.50;99.90
24338;DHT22;12457;50.832;4.346;2022-08-19T13:34:16;28.00;99.90
24338;DHT22;12457;50.832;4.346;2022-08-19T13:36:43;28.50;99.90
24338;DHT22;12457;50.832;4.346;2022-08-19T13:39:09;28.30;99.90
24338;DHT22;12457;50.832;4.346;2022-08-19T13:41:35;28.20;99.90
24338;DHT22;12457;50.832;4.346;2022-08-19T13:44:02;28.20;99.90
24338;DHT22;12457;50.832;4.346;2022-08-19T13:46:33;28.30;99.90
24338;DHT22;12457;50.832;4.346;2022-08-19T13:48:59;28.50;99.90
24338;DHT22;12457;50.832;4.346;2022-08-19T13:51:33;28.20;99.90
24338;DHT22;12457;50.832;4.346;2022-08-19T13:54:04;28.20;99.90
24338;DHT22;12457;50.832;4.346;2022-08-19T13:56:49;28.10;99.90
24338;DHT22;12457;50.832;4.346;2022-08-19T13:59:20;28.00;99.90
24338;DHT22;12457;50.832;4.346;2022-08-19T14:01:52;27.60;99.90
24338;DHT22;12457;50.832;4.346;2022-08-19T14:04:26;27.60;99.90
24338;DHT22;12457;50.832;4.346;2022-08-19T14:06:52;27.40;1.00
24338;DHT22;12457;50.832;4.346;2022-08-19T14:09:23;26.90;1.00
24338;DHT22;12457;50.832;4.346;2022-08-19T14:12:03;26.00;1.00
24338;DHT22;12457;50.832;4.346;2022-08-19T14:14:38;25.30;1.00
24338;DHT22;12457;50.832;4.346;2022-08-19T14:17:08;24.80;14.80
24338;DHT22;12457;50.832;4.346;2022-08-19T14:19:39;24.80;19.90
24338;DHT22;12457;50.832;4.346;2022-08-19T14:22:35;24.80;18.00
24338;DHT22;12457;50.832;4.346;2022-08-19T14:25:09;25.00;14.30
24338;DHT22;12457;50.832;4.346;2022-08-19T14:27:44;25.10;9.60
24338;DHT22;12457;50.832;4.346;2022-08-19T14:30:16;25.30;3.00
24338;DHT22;12457;50.832;4.346;2022-08-19T14:32:43;25.50;1.00
24338;DHT22;12457;50.832;4.346;2022-08-19T14:35:13;25.20;1.00
24338;DHT22;12457;50.832;4.346;2022-08-19T14:37:43;25.10;3.10
24338;DHT22;12457;50.832;4.346;2022-08-19T14:40:14;25.00;10.30
24338;DHT22;12457;50.832;4.346;2022-08-19T14:42:44;25.00;14.60
24338;DHT22;12457;50.832;4.346;2022-08-19T14:45:11;24.70;18.80
24338;DHT22;12457;50.832;4.346;2022-08-19T14:47:39;24.70;17.50
24338;DHT22;12457;50.832;4.346;2022-08-19T14:50:12;24.70;25.70
24338;DHT22;12457;50.832;4.346;2022-08-19T14:52:42;24.90;19.60
24338;DHT22;12457;50.832;4.346;2022-08-19T14:55:15;25.10;10.90
24338;DHT22;12457;50.832;4.346;2022-08-19T14:57:52;25.60;4.60
24338;DHT22;12457;50.832;4.346;2022-08-19T15:00:33;26.00;1.00
24338;DHT22;12457;50.832;4.346;2022-08-19T15:03:02;26.50;1.00
24338;DHT22;12457;50.832;4.346;2022-08-19T15:05:28;26.80;1.00
24338;DHT22;12457;50.832;4.346;2022-08-19T15:07:54;27.10;1.00
24338;DHT22;12457;50.832;4.346;2022-08-19T15:10:23;27.40;1.00
24338;DHT22;12457;50.832;4.346;2022-08-19T15:12:54;27.20;1.00
24338;DHT22;12457;50.832;4.346;2022-08-19T15:15:20;27.20;1.00
24338;DHT22;12457;50.832;4.346;2022-08-19T15:17:47;26.90;1.00
24338;DHT22;12457;50.832;4.346;2022-08-19T15:20:18;26.90;1.00
24338;DHT22;12457;50.832;4.346;2022-08-19T15:22:50;26.80;1.00
24338;DHT22;12457;50.832;4.346;2022-08-19T15:25:17;26.60;1.00
24338;DHT22;12457;50.832;4.346;2022-08-19T15:27:47;26.60;1.00
24338;DHT22;12457;50.832;4.346;2022-08-19T15:30:20;26.70;1.00
24338;DHT22;12457;50.832;4.346;2022-08-19T15:32:52;26.70;1.00
24338;DHT22;12457;50.832;4.346;2022-08-19T15:35:23;26.80;1.00
24338;DHT22;12457;50.832;4.346;2022-08-19T15:37:53;26.80;1.00
24338;DHT22;12457;50.832;4.346;2022-08-19T15:40:20;26.70;1.00
24338;DHT22;12457;50.832;4.346;2022-08-19T15:42:49;26.70;1.00
24338;DHT22;12457;50.832;4.346;2022-08-19T15:45:17;26.60;1.00
24338;DHT22;12457;50.832;4.346;2022-08-19T15:47:43;26.60;1.00
24338;DHT22;12457;50.832;4.346;2022-08-19T15:50:19;26.50;1.00
24338;DHT22;12457;50.832;4.346;2022-08-19T15:52:51;26.40;1.00
24338;DHT22;12457;50.832;4.346;2022-08-19T15:55:26;26.30;1.00
24338;DHT22;12457;50.832;4.346;2022-08-19T15:58:15;26.10;1.00
24338;DHT22;12457;50.832;4.346;2022-08-19T16:01:02;25.90;1.00
24338;DHT22;12457;50.832;4.346;2022-08-19T16:03:51;25.50;10.50
24338;DHT22;12457;50.832;4.346;2022-08-19T16:06:37;25.00;23.60
24338;DHT22;12457;50.832;4.346;2022-08-19T16:09:03;24.20;37.40